createdAt,value
2023-04-20T00:07:49.430Z,4.40
2023-04-20T00:10:41.624Z,4.30
2023-04-20T00:13:13.975Z,4.40
2023-04-20T00:15:48.216Z,4.30
2023-04-20T00:18:16.785Z,4.30
2023-04-20T00:20:52.148Z,4.30
2023-04-20T00:30:12.223Z,4.30
2023-04-20T00:32:59.847Z,4.30
2023-04-20T00:35:36.191Z,4.30
2023-04-20T00:38:52.980Z,4.30
2023-04-20T00:44:24.651Z,4.30
2023-04-20T00:47:04.435Z,4.30
2023-04-20T00:49:48.780Z,4.30
2023-04-20T00:57:53.730Z,4.40
2023-04-20T01:00:39.709Z,4.40
2023-04-20T01:03:15.303Z,4.40
2023-04-20T01:05:54.825Z,4.40
2023-04-20T01:08:27.535Z,4.30
2023-04-20T01:11:04.129Z,4.30
2023-04-20T01:13:32.772Z,4.30
2023-04-20T01:16:08.741Z,4.30
2023-04-20T01:18:46.769Z,4.30
2023-04-20T01:28:20.191Z,4.40
2023-04-20T01:30:58.437Z,4.30
2023-04-20T01:33:46.590Z,4.30
2023-04-20T01:39:09.028Z,4.20
2023-04-20T01:45:08.444Z,4.20
2023-04-20T01:47:53.540Z,4.10
2023-04-20T01:50:21.852Z,4.00
2023-04-20T01:52:52.950Z,4.10
2023-04-20T01:55:25.456Z,4.10
2023-04-20T01:57:56.526Z,4.10
2023-04-20T02:00:38.549Z,4.00
2023-04-20T02:03:10.170Z,4.10
2023-04-20T02:05:38.641Z,4.10
2023-04-20T02:08:08.751Z,4.00
2023-04-20T02:10:40.249Z,4.00
2023-04-20T02:13:15.088Z,4.10
2023-04-20T02:15:45.743Z,4.10
2023-04-20T02:18:17.953Z,4.00
2023-04-20T02:20:46.812Z,3.90
2023-04-20T02:23:17.674Z,3.90
2023-04-20T02:25:50.219Z,3.80
2023-04-20T02:28:21.120Z,3.80
2023-04-20T02:30:50.991Z,3.70
2023-04-20T02:33:21.401Z,3.80
2023-04-20T02:35:52.905Z,3.70
2023-04-20T02:38:22.658Z,3.80
2023-04-20T02:40:51.311Z,3.80
2023-04-20T02:43:19.408Z,3.80
2023-04-20T02:45:50.517Z,3.80
2023-04-20T02:48:21.569Z,3.90
2023-04-20T02:50:51.617Z,4.00
2023-04-20T02:53:23.110Z,4.00
2023-04-20T02:56:15.002Z,4.10
2023-04-20T02:58:48.765Z,4.20
2023-04-20T03:01:25.792Z,4.20
2023-04-20T03:04:02.590Z,4.20
2023-04-20T03:06:33.630Z,4.20
2023-04-20T03:09:03.765Z,4.20
2023-04-20T03:11:55.361Z,4.20
2023-04-20T03:14:42.241Z,4.10
2023-04-20T03:17:15.254Z,4.10
2023-04-20T03:19:43.741Z,4.10
2023-04-20T03:22:11.936Z,4.00
2023-04-20T03:24:40.726Z,4.00
2023-04-20T03:27:35.620Z,3.90
2023-04-20T03:30:11.516Z,3.90
2023-04-20T03:32:42.103Z,3.90
2023-04-20T03:35:12.346Z,3.90
2023-04-20T03:37:41.863Z,3.90
2023-04-20T03:40:11.391Z,3.90
2023-04-20T03:42:43.468Z,3.90
2023-04-20T03:45:12.547Z,3.90
2023-04-20T03:47:43.210Z,3.90
2023-04-20T03:50:14.075Z,3.90
2023-04-20T03:52:42.347Z,3.90
2023-04-20T03:55:12.557Z,3.90
2023-04-20T03:57:46.664Z,3.90
2023-04-20T04:00:17.133Z,3.90
2023-04-20T04:02:50.081Z,4.00
2023-04-20T04:05:26.575Z,4.00
2023-04-20T04:07:55.594Z,4.00
2023-04-20T04:10:25.165Z,4.10
2023-04-20T04:12:53.559Z,4.10
2023-04-20T04:15:22.811Z,4.20
2023-04-20T04:18:11.436Z,4.20
2023-04-20T04:20:42.762Z,4.30
2023-04-20T04:23:14.376Z,4.30
2023-04-20T04:26:07.605Z,4.30
2023-04-20T04:28:45.930Z,4.40
2023-04-20T04:31:19.676Z,4.50
2023-04-20T04:33:51.610Z,4.60
2023-04-20T04:36:35.241Z,4.70
2023-04-20T04:39:03.949Z,4.70
2023-04-20T04:41:33.143Z,4.80
2023-04-20T04:44:16.699Z,4.90
2023-04-20T04:46:46.087Z,5.00
2023-04-20T04:49:16.312Z,5.00
2023-04-20T04:51:51.566Z,5.10
2023-04-20T04:54:20.816Z,5.20
2023-04-20T04:56:55.276Z,5.30
2023-04-20T04:59:24.057Z,5.40
2023-04-20T05:01:55.030Z,5.50
2023-04-20T05:04:26.457Z,5.60
2023-04-20T05:06:54.809Z,5.70
2023-04-20T05:09:23.097Z,5.70
2023-04-20T05:11:51.437Z,5.80
2023-04-20T05:14:20.981Z,5.90
2023-04-20T05:16:49.196Z,6.00
2023-04-20T05:19:18.089Z,6.10
2023-04-20T05:21:48.997Z,6.20
2023-04-20T05:24:17.901Z,6.30
2023-04-20T05:26:46.862Z,6.40
2023-04-20T05:29:16.230Z,6.60
2023-04-20T05:31:45.301Z,6.70
2023-04-20T05:34:14.134Z,6.70
2023-04-20T05:36:42.952Z,6.80
2023-04-20T05:39:13.236Z,6.80
2023-04-20T05:41:41.778Z,6.90
2023-04-20T05:44:10.071Z,7.00
2023-04-20T05:46:39.617Z,7.10
2023-04-20T05:49:09.849Z,7.20
2023-04-20T05:51:39.263Z,7.40
2023-04-20T05:54:07.884Z,7.40
2023-04-20T05:56:38.640Z,7.50
2023-04-20T05:59:06.852Z,7.60
2023-04-20T06:01:35.863Z,7.60
2023-04-20T06:04:04.542Z,7.60
2023-04-20T06:06:33.790Z,7.70
2023-04-20T06:09:04.229Z,7.80
2023-04-20T06:11:34.284Z,7.80
2023-04-20T06:14:04.234Z,7.80
2023-04-20T06:16:33.254Z,7.80
2023-04-20T06:19:02.661Z,7.70
2023-04-20T06:21:31.194Z,7.70
2023-04-20T06:24:01.856Z,7.80
2023-04-20T06:26:30.883Z,7.80
2023-04-20T06:28:59.163Z,7.80
2023-04-20T06:31:29.276Z,7.70
2023-04-20T06:33:57.721Z,7.60
2023-04-20T06:36:27.724Z,7.50
2023-04-20T06:38:56.542Z,7.40
2023-04-20T06:41:24.988Z,7.40
2023-04-20T06:43:54.020Z,7.40
2023-04-20T06:46:22.686Z,7.50
2023-04-20T06:48:52.791Z,7.40
2023-04-20T06:51:21.031Z,7.50
2023-04-20T06:53:49.833Z,7.60
2023-04-20T06:56:18.887Z,7.80
2023-04-20T06:58:47.126Z,7.80
2023-04-20T07:01:16.977Z,7.70
2023-04-20T07:03:47.377Z,7.80
2023-04-20T07:06:19.856Z,7.90
2023-04-20T07:08:48.461Z,7.90
2023-04-20T07:11:19.347Z,8.00
2023-04-20T07:13:48.884Z,8.10
2023-04-20T07:16:17.113Z,8.30
2023-04-20T07:18:48.298Z,8.40
2023-04-20T07:21:17.946Z,8.60
2023-04-20T07:23:48.319Z,8.70
2023-04-20T07:26:17.436Z,9.10
2023-04-20T07:28:46.151Z,9.40
2023-04-20T07:31:14.574Z,9.60
2023-04-20T07:33:42.889Z,9.90
2023-04-20T07:36:11.811Z,10.30
2023-04-20T07:38:41.793Z,10.50
2023-04-20T07:41:10.838Z,10.80
2023-04-20T07:43:39.790Z,11.10
2023-04-20T07:46:08.821Z,11.30
2023-04-20T07:48:37.703Z,11.90
2023-04-20T07:51:06.756Z,13.20
2023-04-20T07:53:35.825Z,13.40
2023-04-20T07:56:06.616Z,13.50
2023-04-20T07:58:35.050Z,13.50
2023-04-20T08:01:04.101Z,13.70
2023-04-20T08:03:34.175Z,14.10
2023-04-20T08:06:03.002Z,14.80
2023-04-20T08:08:31.497Z,14.90
2023-04-20T08:11:00.611Z,15.30
2023-04-20T08:13:31.410Z,16.50
2023-04-20T08:16:00.801Z,17.50
2023-04-20T08:18:30.495Z,17.70
2023-04-20T08:20:59.372Z,18.30
2023-04-20T08:23:29.518Z,18.80
2023-04-20T08:25:58.462Z,19.50
2023-04-20T08:28:33.381Z,18.80
2023-04-20T08:31:04.182Z,18.00
2023-04-20T08:33:32.750Z,16.80
2023-04-20T08:36:02.149Z,16.00
2023-04-20T08:38:34.175Z,15.40
2023-04-20T08:41:03.272Z,15.10
2023-04-20T08:43:36.544Z,15.40
2023-04-20T08:46:06.893Z,15.80
2023-04-20T08:48:36.591Z,16.00
2023-04-20T08:51:05.499Z,16.20
2023-04-20T08:53:34.922Z,16.20
2023-04-20T08:56:03.841Z,16.50
2023-04-20T08:58:33.161Z,17.00
2023-04-20T09:01:01.714Z,17.70
2023-04-20T09:03:44.578Z,19.20
2023-04-20T09:06:16.671Z,20.60
2023-04-20T09:08:46.045Z,20.90
2023-04-20T09:11:28.708Z,20.30
2023-04-20T09:17:07.297Z,20.10
2023-04-20T09:19:40.341Z,21.70
2023-04-20T09:22:10.932Z,22.30
2023-04-20T09:27:31.939Z,22.20
2023-04-20T09:30:35.705Z,21.60
2023-04-20T09:33:04.453Z,20.70
2023-04-20T09:35:49.998Z,19.60
2023-04-20T09:38:37.643Z,19.40
2023-04-20T09:46:49.677Z,24.20
2023-04-20T09:49:18.063Z,25.30
2023-04-20T09:51:47.112Z,26.90
2023-04-20T09:54:17.928Z,28.30
2023-04-20T09:56:48.542Z,29.20
2023-04-20T09:59:20.280Z,29.60
2023-04-20T10:01:48.688Z,29.00
2023-04-20T10:04:17.614Z,27.00
2023-04-20T10:06:55.135Z,27.00
2023-04-20T10:09:27.524Z,26.10
2023-04-20T10:12:09.167Z,25.10
2023-04-20T10:14:38.154Z,23.70
2023-04-20T10:17:09.148Z,21.50
2023-04-20T10:22:30.036Z,19.80
2023-04-20T10:25:19.331Z,19.80
2023-04-20T10:27:54.462Z,19.20
2023-04-20T10:30:32.310Z,18.50
2023-04-20T10:33:08.426Z,19.60
2023-04-20T10:35:45.927Z,21.70
2023-04-20T10:38:14.975Z,22.80
2023-04-20T10:40:46.455Z,22.30
2023-04-20T10:43:22.255Z,22.70
2023-04-20T10:45:51.629Z,24.60
2023-04-20T10:48:22.075Z,25.70
2023-04-20T10:50:50.219Z,25.30
2023-04-20T10:53:19.289Z,23.80
2023-04-20T10:56:04.133Z,22.10
2023-04-20T11:21:49.100Z,15.70
2023-04-20T11:24:21.372Z,15.50
2023-04-20T11:26:51.272Z,16.10
2023-04-20T11:29:30.321Z,17.60
2023-04-20T11:31:58.827Z,18.70
2023-04-20T11:34:53.135Z,19.00
2023-04-20T11:37:28.683Z,18.60
2023-04-20T11:40:01.109Z,18.60
2023-04-20T11:45:58.872Z,19.00
2023-04-20T11:48:27.893Z,18.60
2023-04-20T11:50:56.396Z,17.70
2023-04-20T11:53:27.172Z,17.90
2023-04-20T11:55:56.430Z,18.70
2023-04-20T11:58:26.003Z,19.60
2023-04-20T12:00:54.548Z,20.50
2023-04-20T12:03:24.911Z,20.90
2023-04-20T12:05:55.301Z,21.40
2023-04-20T12:08:26.640Z,21.80
2023-04-20T12:10:57.335Z,22.50
2023-04-20T12:13:27.659Z,23.00
2023-04-20T12:15:58.520Z,21.20
2023-04-20T12:18:26.836Z,19.60
2023-04-20T12:20:54.983Z,18.80
2023-04-20T12:23:36.024Z,18.60
2023-04-20T12:49:45.290Z,20.30
2023-04-20T12:55:12.753Z,21.40
2023-04-20T12:58:03.320Z,20.40
2023-04-20T13:00:59.501Z,18.80
2023-04-20T13:03:29.173Z,18.00
2023-04-20T13:05:57.746Z,17.30
2023-04-20T13:08:26.187Z,17.10
2023-04-20T13:10:56.797Z,17.00
2023-04-20T13:20:19.016Z,15.60
2023-04-20T13:29:33.036Z,13.50
2023-04-20T13:32:25.043Z,12.90
2023-04-20T13:34:53.830Z,12.70
2023-04-20T13:37:23.335Z,12.70
2023-04-20T13:39:54.567Z,12.80
2023-04-20T13:42:22.903Z,13.00
2023-04-20T13:44:52.589Z,13.50
2023-04-20T13:47:30.368Z,14.00
2023-04-20T13:50:00.707Z,14.00
2023-04-20T13:52:31.846Z,14.20
2023-04-20T13:55:01.248Z,14.40
2023-04-20T13:57:34.210Z,14.60
2023-04-20T14:00:12.908Z,14.80
2023-04-20T14:02:56.260Z,14.70
2023-04-20T14:05:26.348Z,14.60
2023-04-20T14:08:04.995Z,14.60
2023-04-20T14:10:33.977Z,14.30
2023-04-20T14:13:02.777Z,14.30
2023-04-20T14:15:33.743Z,14.30
2023-04-20T14:18:17.009Z,14.30
2023-04-20T14:26:42.858Z,14.20
2023-04-20T14:32:11.056Z,14.10
2023-04-20T14:34:40.822Z,14.20
2023-04-20T14:37:10.002Z,14.10
2023-04-20T14:39:39.282Z,13.80
2023-04-20T14:42:08.124Z,13.50
2023-04-20T14:44:37.095Z,13.40
2023-04-20T14:47:23.448Z,13.30
2023-04-20T14:58:44.350Z,13.60
2023-04-20T15:01:15.075Z,13.70
2023-04-20T15:03:52.454Z,13.80
2023-04-20T15:06:21.630Z,14.00
2023-04-20T15:08:50.554Z,14.00
2023-04-20T15:11:18.673Z,14.10
2023-04-20T15:13:48.001Z,14.10
2023-04-20T15:16:18.429Z,14.20
2023-04-20T15:18:47.113Z,14.10
2023-04-20T15:29:55.452Z,13.90
2023-04-20T15:36:06.246Z,13.60
2023-04-20T15:38:34.768Z,13.50
2023-04-20T15:41:03.099Z,13.40
2023-04-20T15:43:32.308Z,13.30
2023-04-20T15:46:00.915Z,13.20
2023-04-20T15:48:29.767Z,13.00
2023-04-20T15:50:59.593Z,12.90
2023-04-20T15:53:27.875Z,12.70
2023-04-20T15:55:57.177Z,12.60
2023-04-20T15:58:36.679Z,12.40
2023-04-20T16:01:15.731Z,12.30
2023-04-20T16:03:45.811Z,12.20
2023-04-20T16:06:16.275Z,12.00
2023-04-20T16:08:45.496Z,12.00
2023-04-20T16:11:14.054Z,12.10
2023-04-20T16:13:42.961Z,12.00
2023-04-20T16:16:13.830Z,11.90
2023-04-20T16:18:45.816Z,11.70
2023-04-20T16:21:15.718Z,11.60
2023-04-20T16:23:44.447Z,11.40
2023-04-20T16:26:16.582Z,11.30
2023-04-20T16:34:31.009Z,11.10
2023-04-20T16:45:18.881Z,11.10
2023-04-20T16:47:47.780Z,11.10
2023-04-20T16:53:15.199Z,11.10
2023-04-20T16:55:44.232Z,11.20
2023-04-20T16:58:15.134Z,11.30
2023-04-20T17:00:44.400Z,11.40
2023-04-20T17:03:15.606Z,11.40
2023-04-20T17:08:33.945Z,11.40
2023-04-20T17:11:06.440Z,11.30
2023-04-20T17:13:35.096Z,11.20
2023-04-20T17:16:04.270Z,11.10
2023-04-20T17:18:35.936Z,11.00
2023-04-20T17:21:04.510Z,11.00
2023-04-20T17:23:36.482Z,11.00
2023-04-20T17:26:06.723Z,11.00
2023-04-20T17:28:35.190Z,11.00
2023-04-20T17:31:03.560Z,11.00
2023-04-20T17:33:32.330Z,11.10
2023-04-20T17:36:04.102Z,11.00
2023-04-20T17:47:34.877Z,10.80
2023-04-20T17:50:09.476Z,10.80
2023-04-20T17:52:38.070Z,10.60
2023-04-20T17:55:08.959Z,10.60
2023-04-20T17:57:40.087Z,10.40
2023-04-20T18:00:11.857Z,10.40
2023-04-20T18:02:40.959Z,10.30
2023-04-20T18:05:11.435Z,10.30
2023-04-20T18:07:41.226Z,10.30
2023-04-20T18:10:13.682Z,10.20
2023-04-20T18:12:45.313Z,10.10
2023-04-20T18:15:14.323Z,10.00
2023-04-20T18:17:42.637Z,9.90
2023-04-20T18:20:11.892Z,9.70
2023-04-20T18:22:40.205Z,9.50
2023-04-20T18:25:09.697Z,9.30
2023-04-20T18:27:40.779Z,9.20
2023-04-20T18:30:15.804Z,9.10
2023-04-20T18:32:44.564Z,8.90
2023-04-20T18:35:12.970Z,8.90
2023-04-20T18:37:42.986Z,8.80
2023-04-20T18:40:16.285Z,8.80
2023-04-20T18:42:45.546Z,8.70
2023-04-20T18:45:28.653Z,8.70
2023-04-20T18:47:59.782Z,8.50
2023-04-20T18:50:28.852Z,8.40
2023-04-20T18:52:57.340Z,8.30
2023-04-20T18:55:25.849Z,8.30
2023-04-20T18:57:55.211Z,8.20
2023-04-20T19:00:23.879Z,8.20
2023-04-20T19:02:55.995Z,8.20
2023-04-20T19:05:27.695Z,8.20
2023-04-20T19:07:56.650Z,8.20
2023-04-20T19:10:26.183Z,8.10
2023-04-20T19:12:57.465Z,8.00
2023-04-20T19:18:45.194Z,8.00
2023-04-20T19:21:21.659Z,8.00
2023-04-20T19:23:52.859Z,8.10
2023-04-20T19:26:21.866Z,8.10
2023-04-20T19:28:51.517Z,8.10
2023-04-20T19:31:20.473Z,8.10
2023-04-20T19:33:49.237Z,8.00
2023-04-20T19:36:20.866Z,8.10
2023-04-20T19:38:49.505Z,8.10
2023-04-20T19:41:17.913Z,8.00
2023-04-20T19:43:46.586Z,8.00
2023-04-20T19:46:17.026Z,8.00
2023-04-20T19:48:45.993Z,8.00
2023-04-20T19:51:14.160Z,8.10
2023-04-20T19:53:44.228Z,8.10
2023-04-20T19:56:13.073Z,8.10
2023-04-20T19:58:41.607Z,8.10
2023-04-20T20:01:09.877Z,8.20
2023-04-20T20:03:44.445Z,8.20
2023-04-20T20:06:14.458Z,8.20
2023-04-20T20:08:46.440Z,8.20
2023-04-20T20:11:16.938Z,8.10
2023-04-20T20:13:47.365Z,8.10
2023-04-20T20:16:16.650Z,8.10
2023-04-20T20:18:45.380Z,8.10
2023-04-20T20:21:16.380Z,8.10
2023-04-20T20:23:48.032Z,8.10
2023-04-20T20:26:16.176Z,8.10
2023-04-20T20:28:46.087Z,8.20
2023-04-20T20:31:14.741Z,8.20
2023-04-20T20:33:44.431Z,8.30
2023-04-20T20:36:18.013Z,8.30
2023-04-20T20:38:48.666Z,8.40
2023-04-20T20:41:20.344Z,8.40
2023-04-20T20:43:52.295Z,8.40
2023-04-20T20:46:20.765Z,8.50
2023-04-20T20:48:48.833Z,8.50
2023-04-20T20:51:17.739Z,8.50
2023-04-20T20:53:51.928Z,8.50
2023-04-20T20:56:21.768Z,8.50
2023-04-20T20:58:59.321Z,8.50
2023-04-20T21:01:27.988Z,8.50
2023-04-20T21:03:56.456Z,8.50
2023-04-20T21:06:24.679Z,8.50
2023-04-20T21:09:24.006Z,8.40
2023-04-20T21:11:54.147Z,8.40
2023-04-20T21:14:22.218Z,8.40
2023-04-20T21:16:53.788Z,8.40
2023-04-20T21:19:23.517Z,8.40
2023-04-20T21:21:52.926Z,8.40
2023-04-20T21:24:21.507Z,8.40
2023-04-20T21:26:52.547Z,8.40
2023-04-20T21:29:24.105Z,8.40
2023-04-20T21:31:54.394Z,8.30
2023-04-20T21:34:22.869Z,8.20
2023-04-20T21:36:52.053Z,8.20
2023-04-20T21:39:21.509Z,8.10
2023-04-20T21:41:57.413Z,8.10
2023-04-20T21:44:27.044Z,8.10
2023-04-20T21:46:58.278Z,8.10
2023-04-20T21:52:35.266Z,8.00
2023-04-20T21:55:13.936Z,8.00
2023-04-20T21:57:54.529Z,8.10
2023-04-20T22:00:26.014Z,8.10
2023-04-20T22:02:56.515Z,8.10
2023-04-20T22:05:33.485Z,8.10
2023-04-20T22:08:02.522Z,8.20
2023-04-20T22:10:31.419Z,8.20
2023-04-20T22:13:01.362Z,8.20
2023-04-20T22:15:33.204Z,8.20
2023-04-20T22:18:04.183Z,8.10
2023-04-20T22:20:33.392Z,8.10
2023-04-20T22:23:03.935Z,8.00
2023-04-20T22:28:28.199Z,8.00
2023-04-20T22:31:27.016Z,8.10
2023-04-20T22:34:04.292Z,8.10
2023-04-20T22:36:36.892Z,8.10
2023-04-20T22:39:08.929Z,8.10
2023-04-20T22:41:37.192Z,8.10
2023-04-20T22:44:08.273Z,8.10
2023-04-20T22:47:04.303Z,8.20
2023-04-20T22:58:01.977Z,8.10
2023-04-20T23:00:34.099Z,8.00
2023-04-20T23:03:38.864Z,8.00
2023-04-20T23:06:36.444Z,8.00
2023-04-20T23:09:32.772Z,8.00
2023-04-20T23:12:09.870Z,7.90
2023-04-20T23:14:55.552Z,7.80
2023-04-20T23:20:43.758Z,7.90
2023-04-20T23:23:27.494Z,7.90
2023-04-20T23:26:12.476Z,7.90
2023-04-20T23:31:42.359Z,7.90
2023-04-20T23:39:49.634Z,7.90
2023-04-20T23:42:28.510Z,7.90
2023-04-20T23:45:01.793Z,7.90
2023-04-20T23:47:30.638Z,7.80
2023-04-20T23:50:18.699Z,7.80
2023-04-20T23:52:55.965Z,7.70
2023-04-20T23:58:17.381Z,7.60
